createdAt,value
2022-12-29T00:02:10.224Z,99530.85
2022-12-29T00:04:42.612Z,99541.36
2022-12-29T00:07:14.492Z,99547.30
2022-12-29T00:09:46.437Z,99546.53
2022-12-29T00:12:18.468Z,99549.09
2022-12-29T00:15:07.866Z,99543.11
2022-12-29T00:17:39.860Z,99544.03
2022-12-29T00:20:29.300Z,99539.69
2022-12-29T00:23:19.147Z,99544.92
2022-12-29T00:26:08.625Z,99545.84
2022-12-29T00:28:58.138Z,99544.18
2022-12-29T00:31:47.745Z,99545.88
2022-12-29T00:34:37.519Z,99549.30
2022-12-29T00:37:09.526Z,99562.41
2022-12-29T00:39:58.949Z,99558.98
2022-12-29T00:42:49.044Z,99557.52
2022-12-29T00:45:21.031Z,99566.88
2022-12-29T00:47:53.283Z,99573.03
2022-12-29T00:50:25.506Z,99566.30
2022-12-29T00:52:57.626Z,99571.53
2022-12-29T00:55:29.538Z,99570.74
2022-12-29T00:58:01.724Z,99569.08
2022-12-29T01:00:33.831Z,99573.38
2022-12-29T01:03:06.422Z,99572.55
2022-12-29T01:05:41.338Z,99571.69
2022-12-29T01:08:13.326Z,99573.33
2022-12-29T01:10:45.161Z,99575.75
2022-12-29T01:13:17.210Z,99571.47
2022-12-29T01:15:53.888Z,99571.47
2022-12-29T01:18:27.744Z,99579.20
2022-12-29T01:21:04.795Z,99581.79
2022-12-29T01:23:36.789Z,99582.70
2022-12-29T01:26:17.960Z,99587.85
2022-12-29T01:28:50.134Z,99579.06
2022-12-29T01:31:22.625Z,99586.07
2022-12-29T01:33:54.541Z,99589.59
2022-12-29T01:36:27.000Z,99598.44
2022-12-29T01:38:59.219Z,99594.77
2022-12-29T01:41:32.562Z,99595.69
2022-12-29T01:44:25.256Z,99596.81
2022-12-29T01:46:57.760Z,99601.95
2022-12-29T01:49:30.510Z,99590.59
2022-12-29T01:52:05.623Z,99600.36
2022-12-29T01:54:40.452Z,99602.08
2022-12-29T01:57:15.251Z,99598.00
2022-12-29T01:59:50.453Z,99608.41
2022-12-29T02:02:22.864Z,99593.77
2022-12-29T02:05:00.129Z,99597.19
2022-12-29T02:07:30.999Z,99593.89
2022-12-29T02:10:05.092Z,99597.48
2022-12-29T02:12:36.391Z,99600.11
2022-12-29T02:15:09.143Z,99608.46
2022-12-29T02:18:00.122Z,99600.23
2022-12-29T02:20:56.048Z,99608.09
2022-12-29T02:23:33.712Z,99604.69
2022-12-29T02:26:41.439Z,99607.39
2022-12-29T02:29:49.087Z,99604.69
2022-12-29T02:32:24.059Z,99609.07
2022-12-29T02:35:07.801Z,99608.32
2022-12-29T02:38:03.560Z,99608.16
2022-12-29T02:40:41.041Z,99612.75
2022-12-29T02:43:27.498Z,99611.95
2022-12-29T02:46:02.916Z,99611.16
2022-12-29T02:48:49.621Z,99623.86
2022-12-29T02:51:27.349Z,99632.67
2022-12-29T02:54:17.572Z,99634.19
2022-12-29T02:56:51.306Z,99636.18
2022-12-29T02:59:24.532Z,99648.17
2022-12-29T03:02:23.563Z,99634.52
2022-12-29T03:05:17.450Z,99632.72
2022-12-29T03:07:59.203Z,99637.91
2022-12-29T03:10:40.054Z,99626.70
2022-12-29T03:13:32.449Z,99637.03
2022-12-29T03:16:10.108Z,99637.02
2022-12-29T03:19:02.436Z,99638.84
2022-12-29T03:22:03.938Z,99643.23
2022-12-29T03:24:40.780Z,99643.97
2022-12-29T03:27:16.461Z,99648.24
2022-12-29T03:29:55.890Z,99645.78
2022-12-29T03:32:33.937Z,99654.47
2022-12-29T03:35:07.743Z,99655.28
2022-12-29T03:37:47.024Z,99666.47
2022-12-29T03:40:20.962Z,99665.67
2022-12-29T03:42:54.832Z,99666.57
2022-12-29T03:45:27.714Z,99664.79
2022-12-29T03:47:59.714Z,99669.84
2022-12-29T03:50:33.146Z,99670.73
2022-12-29T03:53:05.249Z,99677.50
2022-12-29T03:55:37.327Z,99674.91
2022-12-29T03:58:09.281Z,99671.41
2022-12-29T04:00:58.728Z,99672.31
2022-12-29T04:03:31.491Z,99675.73
2022-12-29T04:06:04.285Z,99686.93
2022-12-29T04:08:37.961Z,99674.84
2022-12-29T04:11:11.116Z,99691.21
2022-12-29T04:13:44.399Z,99680.98
2022-12-29T04:16:18.410Z,99684.48
2022-12-29T04:18:50.694Z,99687.84
2022-12-29T04:21:22.680Z,99689.55
2022-12-29T04:23:54.811Z,99687.00
2022-12-29T04:26:27.014Z,99686.95
2022-12-29T04:29:00.708Z,99686.95
2022-12-29T04:31:47.017Z,99692.08
2022-12-29T04:34:19.158Z,99682.59
2022-12-29T04:36:52.564Z,99698.14
2022-12-29T04:39:24.831Z,99696.37
2022-12-29T04:41:57.799Z,99691.31
2022-12-29T04:44:30.830Z,99694.75
2022-12-29T04:47:14.554Z,99699.79
2022-12-29T04:49:54.129Z,99707.59
2022-12-29T04:52:27.832Z,99704.20
2022-12-29T04:55:00.346Z,99708.50
2022-12-29T04:57:33.196Z,99715.41
2022-12-29T05:00:07.996Z,99712.80
2022-12-29T05:02:41.705Z,99708.45
2022-12-29T05:05:14.944Z,99711.73
2022-12-29T05:07:49.788Z,99701.54
2022-12-29T05:10:22.163Z,99699.98
2022-12-29T05:12:56.414Z,99706.97
2022-12-29T05:15:28.697Z,99712.26
2022-12-29T05:18:01.122Z,99721.95
2022-12-29T05:20:34.808Z,99721.25
2022-12-29T05:23:08.603Z,99719.64
2022-12-29T05:25:41.565Z,99723.15
2022-12-29T05:28:15.174Z,99731.82
2022-12-29T05:30:53.498Z,99728.21
2022-12-29T05:33:26.222Z,99719.77
2022-12-29T05:35:58.426Z,99724.05
2022-12-29T05:38:30.983Z,99734.34
2022-12-29T05:41:04.660Z,99738.55
2022-12-29T05:43:54.877Z,99750.53
2022-12-29T05:46:38.034Z,99747.02
2022-12-29T05:49:14.474Z,99741.77
2022-12-29T05:52:06.564Z,99747.05
2022-12-29T05:54:39.668Z,99743.63
2022-12-29T05:57:14.001Z,99741.97
2022-12-29T05:59:47.295Z,99752.39
2022-12-29T06:02:20.070Z,99755.69
2022-12-29T06:04:52.872Z,99760.15
2022-12-29T06:07:25.606Z,99754.20
2022-12-29T06:09:58.346Z,99751.66
2022-12-29T06:12:33.171Z,99757.70
2022-12-29T06:15:06.020Z,99750.84
2022-12-29T06:17:38.335Z,99750.78
2022-12-29T06:20:12.184Z,99757.69
2022-12-29T06:22:44.603Z,99756.83
2022-12-29T06:25:18.344Z,99753.42
2022-12-29T06:27:50.287Z,99752.52
2022-12-29T06:30:22.375Z,99754.19
2022-12-29T06:32:55.854Z,99759.27
2022-12-29T06:35:29.949Z,99758.36
2022-12-29T06:38:02.057Z,99759.16
2022-12-29T06:40:36.265Z,99765.97
2022-12-29T06:43:10.878Z,99761.63
2022-12-29T06:45:45.981Z,99758.22
2022-12-29T06:48:18.642Z,99762.48
2022-12-29T06:50:50.847Z,99768.42
2022-12-29T06:53:23.211Z,99767.38
2022-12-29T06:55:55.745Z,99769.05
2022-12-29T06:58:27.896Z,99768.18
2022-12-29T07:01:01.367Z,99762.14
2022-12-29T07:03:33.855Z,99767.30
2022-12-29T07:06:07.153Z,99766.41
2022-12-29T07:08:40.085Z,99770.73
2022-12-29T07:11:12.807Z,99757.80
2022-12-29T07:13:45.096Z,99767.22
2022-12-29T07:16:17.972Z,99763.75
2022-12-29T07:18:50.608Z,99777.55
2022-12-29T07:21:23.475Z,99773.23
2022-12-29T07:23:56.508Z,99770.62
2022-12-29T07:26:34.410Z,99767.13
2022-12-29T07:29:04.398Z,99773.02
2022-12-29T07:31:36.478Z,99772.01
2022-12-29T07:34:10.252Z,99766.80
2022-12-29T07:36:42.514Z,99773.66
2022-12-29T07:39:14.977Z,99777.03
2022-12-29T07:41:47.020Z,99777.89
2022-12-29T07:44:20.853Z,99776.27
2022-12-29T07:47:00.644Z,99778.97
2022-12-29T07:49:32.743Z,99766.07
2022-12-29T07:52:05.255Z,99777.42
2022-12-29T07:54:37.572Z,99784.34
2022-12-29T07:57:10.208Z,99779.18
2022-12-29T07:59:42.820Z,99789.42
2022-12-29T08:02:15.532Z,99787.66
2022-12-29T08:04:47.892Z,99789.45
2022-12-29T08:07:19.934Z,99796.31
2022-12-29T08:09:52.064Z,99794.58
2022-12-29T08:12:24.652Z,99798.86
2022-12-29T08:14:57.218Z,99800.53
2022-12-29T08:17:29.777Z,99803.87
2022-12-29T08:20:02.561Z,99800.25
2022-12-29T08:22:35.906Z,99795.81
2022-12-29T08:25:08.658Z,99799.92
2022-12-29T08:27:40.915Z,99797.98
2022-12-29T08:30:13.803Z,99797.02
2022-12-29T08:32:46.210Z,99805.66
2022-12-29T08:35:18.621Z,99808.08
2022-12-29T08:37:51.748Z,99800.63
2022-12-29T08:40:25.699Z,99810.16
2022-12-29T08:42:57.805Z,99805.91
2022-12-29T08:45:30.291Z,99805.86
2022-12-29T08:48:02.731Z,99798.88
2022-12-29T08:50:34.761Z,99800.58
2022-12-29T08:53:07.576Z,99803.16
2022-12-29T08:55:40.000Z,99799.71
2022-12-29T08:58:13.960Z,99799.62
2022-12-29T09:00:47.859Z,99802.97
2022-12-29T09:03:37.756Z,99802.72
2022-12-29T09:05:55.127Z,99809.48
2022-12-29T09:08:27.660Z,99806.79
2022-12-29T09:11:11.429Z,99804.86
2022-12-29T09:13:43.908Z,99816.94
2022-12-29T09:16:16.620Z,99805.70
2022-12-29T09:18:49.259Z,99810.11
2022-12-29T09:21:21.678Z,99815.45
2022-12-29T09:23:53.742Z,99810.34
2022-12-29T09:26:26.190Z,99807.78
2022-12-29T09:28:58.747Z,99805.97
2022-12-29T09:31:31.403Z,99801.58
2022-12-29T09:34:04.045Z,99799.75
2022-12-29T09:36:36.069Z,99798.84
2022-12-29T09:39:08.462Z,99808.22
2022-12-29T09:41:49.036Z,99798.64
2022-12-29T09:44:24.129Z,99799.38
2022-12-29T09:46:59.133Z,99802.78
2022-12-29T09:49:44.152Z,99806.26
2022-12-29T09:52:26.484Z,99814.02
2022-12-29T09:55:13.528Z,99814.02
2022-12-29T09:57:50.949Z,99809.78
2022-12-29T10:00:25.588Z,99815.82
2022-12-29T10:03:03.936Z,99809.90
2022-12-29T10:05:56.377Z,99812.73
2022-12-29T10:08:46.100Z,99813.70
2022-12-29T10:11:39.640Z,99811.20
2022-12-29T10:14:37.045Z,99804.28
2022-12-29T10:17:34.371Z,99803.45
2022-12-29T10:20:09.460Z,99804.28
2022-12-29T10:23:05.271Z,99806.97
2022-12-29T10:25:42.469Z,99799.25
2022-12-29T10:28:23.416Z,99804.38
2022-12-29T10:31:03.521Z,99809.48
2022-12-29T10:33:35.738Z,99815.52
2022-12-29T10:36:19.627Z,99808.61
2022-12-29T10:38:54.944Z,99814.56
2022-12-29T10:41:30.029Z,99807.58
2022-12-29T10:44:03.928Z,99800.69
2022-12-29T10:46:37.293Z,99804.11
2022-12-29T10:49:21.290Z,99803.77
2022-12-29T10:51:53.306Z,99804.86
2022-12-29T10:54:34.074Z,99798.83
2022-12-29T10:57:14.722Z,99803.09
2022-12-29T10:59:47.415Z,99796.09
2022-12-29T11:02:38.766Z,99797.70
2022-12-29T11:05:20.331Z,99791.59
2022-12-29T11:07:56.038Z,99793.27
2022-12-29T11:10:41.938Z,99786.42
2022-12-29T11:13:22.388Z,99788.14
2022-12-29T11:15:54.940Z,99782.99
2022-12-29T11:18:39.135Z,99783.02
2022-12-29T11:21:32.020Z,99784.88
2022-12-29T11:24:06.772Z,99792.77
2022-12-29T11:26:38.857Z,99783.39
2022-12-29T11:29:19.488Z,99780.06
2022-12-29T11:32:00.997Z,99788.73
2022-12-29T11:34:36.147Z,99788.77
2022-12-29T11:37:17.329Z,99789.61
2022-12-29T11:40:08.728Z,99785.25
2022-12-29T11:42:45.345Z,99779.15
2022-12-29T11:45:30.096Z,99784.28
2022-12-29T11:48:05.096Z,99781.65
2022-12-29T11:50:40.192Z,99788.52
2022-12-29T11:53:25.029Z,99776.50
2022-12-29T11:56:00.039Z,99790.32
2022-12-29T11:58:34.731Z,99794.65
2022-12-29T12:01:22.182Z,99796.42
2022-12-29T12:04:06.387Z,99806.75
2022-12-29T12:06:47.755Z,99808.45
2022-12-29T12:09:34.925Z,99806.65
2022-12-29T12:12:09.793Z,99810.03
2022-12-29T12:14:59.693Z,99818.61
2022-12-29T12:17:48.323Z,99820.36
2022-12-29T12:20:29.123Z,99811.74
2022-12-29T12:23:04.647Z,99815.16
2022-12-29T12:26:11.779Z,99806.52
2022-12-29T12:28:52.651Z,99798.73
2022-12-29T12:31:49.856Z,99806.47
2022-12-29T12:34:27.771Z,99813.34
2022-12-29T12:37:08.901Z,99809.94
2022-12-29T12:39:50.055Z,99812.59
2022-12-29T12:42:28.132Z,99804.91
2022-12-29T12:45:17.811Z,99806.65
2022-12-29T12:48:11.093Z,99803.23
2022-12-29T12:50:54.854Z,99804.06
2022-12-29T12:53:41.913Z,99804.09
2022-12-29T12:56:22.727Z,99802.34
2022-12-29T12:59:18.631Z,99801.50
2022-12-29T13:02:06.239Z,99801.50
2022-12-29T13:04:41.359Z,99798.06
2022-12-29T13:07:19.233Z,99798.08
2022-12-29T13:10:21.715Z,99811.02
2022-12-29T13:13:17.709Z,99804.97
2022-12-29T13:16:07.427Z,99811.02
2022-12-29T13:18:41.640Z,99803.27
2022-12-29T13:21:31.563Z,99804.18
2022-12-29T13:24:06.712Z,99807.62
2022-12-29T13:26:47.609Z,99802.45
2022-12-29T13:29:40.288Z,99808.48
2022-12-29T13:32:24.386Z,99806.79
2022-12-29T13:35:08.081Z,99801.59
2022-12-29T13:37:43.559Z,99799.92
2022-12-29T13:40:20.057Z,99802.52
2022-12-29T13:42:54.681Z,99806.79
2022-12-29T13:45:29.310Z,99807.62
2022-12-29T13:48:14.039Z,99804.18
2022-12-29T13:50:49.180Z,99797.21
2022-12-29T13:53:24.728Z,99797.19
2022-12-29T13:56:11.683Z,99792.89
2022-12-29T13:59:01.751Z,99798.00
2022-12-29T14:01:36.996Z,99791.92
2022-12-29T14:04:15.578Z,99795.33
2022-12-29T14:06:50.331Z,99793.52
2022-12-29T14:09:35.597Z,99791.71
2022-12-29T14:12:28.739Z,99797.69
2022-12-29T14:15:13.253Z,99797.56
2022-12-29T14:18:06.687Z,99794.95
2022-12-29T14:20:40.005Z,99793.98
2022-12-29T14:23:14.965Z,99793.98
2022-12-29T14:26:04.688Z,99799.12
2022-12-29T14:28:39.878Z,99794.80
2022-12-29T14:31:21.584Z,99795.59
2022-12-29T14:34:14.801Z,99801.61
2022-12-29T14:37:02.426Z,99798.20
2022-12-29T14:39:44.357Z,99794.73
2022-12-29T14:42:19.589Z,99792.14
2022-12-29T14:45:11.869Z,99799.88
2022-12-29T14:47:47.150Z,99797.30
2022-12-29T14:50:23.556Z,99795.52
2022-12-29T14:53:04.243Z,99800.67
2022-12-29T14:55:44.899Z,99799.75
2022-12-29T14:58:23.361Z,99795.47
2022-12-29T15:00:57.350Z,99802.34
2022-12-29T15:03:35.743Z,99797.14
2022-12-29T15:06:17.174Z,99794.55
2022-12-29T15:09:07.289Z,99797.11
2022-12-29T15:11:44.728Z,99803.19
2022-12-29T15:14:38.755Z,99804.04
2022-12-29T15:17:24.984Z,99799.73
2022-12-29T15:19:59.025Z,99800.59
2022-12-29T15:22:33.240Z,99805.77
2022-12-29T15:25:05.858Z,99803.19
2022-12-29T15:27:37.761Z,99801.43
2022-12-29T15:30:17.858Z,99800.59
2022-12-29T15:32:48.644Z,99798.84
2022-12-29T15:35:38.603Z,99799.73
2022-12-29T15:38:23.498Z,99799.70
2022-12-29T15:40:59.335Z,99794.48
2022-12-29T15:43:47.117Z,99793.59
2022-12-29T15:46:19.363Z,99790.22
2022-12-29T15:48:51.623Z,99791.94
2022-12-29T15:51:29.802Z,99792.80
2022-12-29T15:54:02.681Z,99784.98
2022-12-29T15:56:35.755Z,99791.00
2022-12-29T15:59:09.278Z,99783.26
2022-12-29T16:01:41.580Z,99783.23
2022-12-29T16:04:14.047Z,99779.75
2022-12-29T16:06:49.002Z,99782.34
2022-12-29T16:09:24.034Z,99771.18
2022-12-29T16:11:58.932Z,99772.87
2022-12-29T16:14:46.144Z,99772.02
2022-12-29T16:17:21.406Z,99766.00
2022-12-29T16:19:58.886Z,99758.23
2022-12-29T16:22:35.456Z,99768.59
2022-12-29T16:25:10.555Z,99766.00
2022-12-29T16:27:44.994Z,99761.61
2022-12-29T16:30:33.548Z,99753.86
2022-12-29T16:33:07.434Z,99757.34
2022-12-29T16:35:47.709Z,99752.97
2022-12-29T16:38:25.624Z,99752.97
2022-12-29T16:41:00.075Z,99749.52
2022-12-29T16:43:35.727Z,99751.27
2022-12-29T16:46:14.202Z,99750.38
2022-12-29T16:48:55.147Z,99749.55
2022-12-29T16:51:36.098Z,99746.09
2022-12-29T16:54:08.493Z,99734.02
2022-12-29T16:56:43.485Z,99741.76
2022-12-29T16:59:36.372Z,99740.00
2022-12-29T17:02:17.612Z,99749.52
2022-12-29T17:04:51.636Z,99743.41
2022-12-29T17:07:26.445Z,99747.74
2022-12-29T17:09:58.743Z,99747.77
2022-12-29T17:12:32.004Z,99750.33
2022-12-29T17:15:13.857Z,99752.11
2022-12-29T17:17:49.315Z,99744.38
2022-12-29T17:20:27.519Z,99748.66
2022-12-29T17:23:01.090Z,99751.25
2022-12-29T17:25:36.392Z,99747.86
2022-12-29T17:28:21.352Z,99740.11
2022-12-29T17:30:57.217Z,99736.69
2022-12-29T17:33:31.022Z,99741.86
2022-12-29T17:36:03.168Z,99734.98
2022-12-29T17:38:37.835Z,99734.09
2022-12-29T17:41:16.640Z,99734.05
2022-12-29T17:43:49.464Z,99733.20
2022-12-29T17:46:22.029Z,99729.76
2022-12-29T17:48:54.350Z,99725.50
2022-12-29T17:51:26.655Z,99727.19
2022-12-29T17:53:59.218Z,99730.62
2022-12-29T17:56:31.837Z,99724.63
2022-12-29T17:59:04.582Z,99713.50
2022-12-29T18:01:41.008Z,99711.77
2022-12-29T18:04:13.802Z,99713.52
2022-12-29T18:06:47.444Z,99717.81
2022-12-29T18:09:21.330Z,99717.03
2022-12-29T18:12:05.741Z,99722.18
2022-12-29T18:14:37.997Z,99721.31
2022-12-29T18:17:14.441Z,99712.66
2022-12-29T18:19:46.661Z,99717.00
2022-12-29T18:22:18.765Z,99715.25
2022-12-29T18:24:51.150Z,99716.11
2022-12-29T18:27:23.260Z,99716.03
2022-12-29T18:29:55.537Z,99716.95
2022-12-29T18:32:28.542Z,99717.81
2022-12-29T18:35:01.104Z,99717.81
2022-12-29T18:37:33.457Z,99719.48
2022-12-29T18:40:05.946Z,99716.00
2022-12-29T18:42:38.267Z,99703.98
2022-12-29T18:45:24.325Z,99705.67
2022-12-29T18:47:56.255Z,99702.23
2022-12-29T18:50:29.532Z,99712.58
2022-12-29T18:53:04.215Z,99707.41
2022-12-29T18:55:36.332Z,99703.92
2022-12-29T18:58:08.477Z,99711.72
2022-12-29T19:00:41.104Z,99702.23
2022-12-29T19:03:15.727Z,99703.05
2022-12-29T19:05:49.337Z,99698.75
2022-12-29T19:08:21.360Z,99697.02
2022-12-29T19:10:53.589Z,99704.81
2022-12-29T19:13:27.424Z,99700.50
2022-12-29T19:16:00.263Z,99690.20
2022-12-29T19:18:43.565Z,99695.41
2022-12-29T19:21:07.164Z,99694.48
2022-12-29T19:23:39.457Z,99692.70
2022-12-29T19:29:02.219Z,99689.34
2022-12-29T19:31:34.880Z,99694.48
2022-12-29T19:34:07.107Z,99701.34
2022-12-29T19:36:39.410Z,99693.56
2022-12-29T19:39:12.791Z,99699.64
2022-12-29T19:41:45.124Z,99691.90
2022-12-29T19:44:17.450Z,99696.16
2022-12-29T19:46:49.736Z,99686.75
2022-12-29T19:49:22.063Z,99683.27
2022-12-29T19:51:54.130Z,99685.94
2022-12-29T19:54:26.193Z,99686.80
2022-12-29T19:56:58.193Z,99684.23
2022-12-29T19:59:30.235Z,99687.69
2022-12-29T20:02:02.737Z,99681.65
2022-12-29T20:04:35.202Z,99673.05
2022-12-29T20:07:07.259Z,99673.00
2022-12-29T20:09:39.181Z,99675.53
2022-12-29T20:12:11.901Z,99679.84
2022-12-29T20:14:45.151Z,99673.75
2022-12-29T20:17:32.686Z,99676.34
2022-12-29T20:19:53.043Z,99673.75
2022-12-29T20:22:25.376Z,99667.70
2022-12-29T20:25:25.979Z,99676.31
2022-12-29T20:27:31.852Z,99672.83
2022-12-29T20:30:04.345Z,99670.19
2022-12-29T20:32:36.490Z,99665.84
2022-12-29T20:35:09.457Z,99655.48
2022-12-29T20:37:42.000Z,99665.81
2022-12-29T20:40:16.219Z,99668.41
2022-12-29T20:42:48.666Z,99673.61
2022-12-29T20:45:20.905Z,99676.20
2022-12-29T20:47:53.228Z,99681.40
2022-12-29T20:50:25.967Z,99678.06
2022-12-29T20:52:58.267Z,99670.30
2022-12-29T20:55:31.566Z,99668.63
2022-12-29T21:00:37.425Z,99658.45
2022-12-29T21:03:09.806Z,99649.02
2022-12-29T21:05:42.333Z,99649.95
2022-12-29T21:08:14.407Z,99633.59
2022-12-29T21:10:50.774Z,99637.09
2022-12-29T21:13:22.737Z,99630.26
2022-12-29T21:16:03.254Z,99632.00
2022-12-29T21:18:35.509Z,99631.98
2022-12-29T21:21:10.864Z,99629.42
2022-12-29T21:23:43.016Z,99624.22
2022-12-29T21:26:17.270Z,99627.67
2022-12-29T21:28:49.549Z,99624.22
2022-12-29T21:31:33.639Z,99619.93
2022-12-29T21:34:07.007Z,99607.91
2022-12-29T21:36:39.117Z,99611.36
2022-12-29T21:39:12.875Z,99601.84
2022-12-29T21:41:45.361Z,99601.81
2022-12-29T21:44:35.487Z,99605.20
2022-12-29T21:47:07.692Z,99604.37
2022-12-29T21:49:39.725Z,99604.35
2022-12-29T21:52:12.013Z,99604.37
2022-12-29T21:55:02.117Z,99598.31
2022-12-29T21:57:51.951Z,99593.25
2022-12-29T22:00:41.621Z,99588.94
2022-12-29T22:03:32.112Z,99589.89
2022-12-29T22:06:22.283Z,99589.08
2022-12-29T22:09:12.005Z,99583.94
2022-12-29T22:12:01.657Z,99582.23
2022-12-29T22:14:33.660Z,99590.80
2022-12-29T22:17:10.616Z,99589.91
2022-12-29T22:19:39.641Z,99594.23
2022-12-29T22:22:11.647Z,99600.27
2022-12-29T22:24:43.647Z,99595.98
2022-12-29T22:27:16.026Z,99596.84
2022-12-29T22:29:48.449Z,99591.67
2022-12-29T22:32:20.527Z,99595.92
2022-12-29T22:34:52.478Z,99596.78
2022-12-29T22:37:24.490Z,99589.03
2022-12-29T22:39:56.521Z,99589.83
2022-12-29T22:42:28.674Z,99586.34
2022-12-29T22:45:00.993Z,99582.02
2022-12-29T22:47:33.599Z,99584.63
2022-12-29T22:50:06.642Z,99596.67
2022-12-29T22:52:38.606Z,99594.95
2022-12-29T22:55:11.098Z,99589.77
2022-12-29T22:57:43.155Z,99593.16
2022-12-29T23:00:15.567Z,99586.32
2022-12-29T23:02:47.719Z,99579.39
2022-12-29T23:05:20.046Z,99582.84
2022-12-29T23:07:52.244Z,99575.05
2022-12-29T23:10:24.164Z,99560.39
2022-12-29T23:12:56.382Z,99563.90
2022-12-29T23:15:28.381Z,99564.80
2022-12-29T23:18:00.389Z,99568.19
2022-12-29T23:20:32.422Z,99569.84
2022-12-29T23:23:04.676Z,99574.16
2022-12-29T23:25:40.532Z,99571.63
2022-12-29T23:28:12.582Z,99577.73
2022-12-29T23:30:44.782Z,99571.63
2022-12-29T23:33:16.868Z,99580.31
2022-12-29T23:35:48.776Z,99586.34
2022-12-29T23:38:20.749Z,99588.11
2022-12-29T23:40:52.612Z,99576.89
2022-12-29T23:43:24.692Z,99579.45
2022-12-29T23:45:56.710Z,99582.93
2022-12-29T23:48:28.553Z,99579.45
2022-12-29T23:51:00.755Z,99571.66
2022-12-29T23:53:33.765Z,99579.42
2022-12-29T23:56:06.955Z,99573.41
2022-12-29T23:58:39.432Z,99571.72
